sensor_id;sensor_type;location;lat;lon;timestamp;P1;durP1;ratioP1;P2;durP2;ratioP2
13704;SDS011;6924;52.122;9.952;2023-03-04T00:00:42;9.63;;;6.13;;
13704;SDS011;6924;52.122;9.952;2023-03-04T00:03:10;9.00;;;5.37;;
13704;SDS011;6924;52.122;9.952;2023-03-04T00:05:39;11.27;;;4.73;;
13704;SDS011;6924;52.122;9.952;2023-03-04T00:08:05;8.93;;;3.80;;
13704;SDS011;6924;52.122;9.952;2023-03-04T00:10:33;7.63;;;4.30;;
13704;SDS011;6924;52.122;9.952;2023-03-04T00:13:00;10.70;;;3.83;;
13704;SDS011;6924;52.122;9.952;2023-03-04T00:15:26;8.57;;;4.10;;
13704;SDS011;6924;52.122;9.952;2023-03-04T00:17:53;6.50;;;3.67;;
13704;SDS011;6924;52.122;9.952;2023-03-04T00:20:19;12.30;;;3.50;;
13704;SDS011;6924;52.122;9.952;2023-03-04T00:22:46;10.67;;;3.20;;
13704;SDS011;6924;52.122;9.952;2023-03-04T00:25:12;7.50;;;3.40;;
13704;SDS011;6924;52.122;9.952;2023-03-04T00:27:40;15.17;;;4.47;;
13704;SDS011;6924;52.122;9.952;2023-03-04T00:30:07;5.57;;;3.23;;
13704;SDS011;6924;52.122;9.952;2023-03-04T00:32:34;10.57;;;3.50;;
13704;SDS011;6924;52.122;9.952;2023-03-04T00:35:01;15.10;;;3.20;;
13704;SDS011;6924;52.122;9.952;2023-03-04T00:37:27;10.63;;;3.57;;
13704;SDS011;6924;52.122;9.952;2023-03-04T00:39:53;13.00;;;4.00;;
13704;SDS011;6924;52.122;9.952;2023-03-04T00:42:20;7.77;;;2.80;;
13704;SDS011;6924;52.122;9.952;2023-03-04T00:44:48;7.37;;;2.53;;
13704;SDS011;6924;52.122;9.952;2023-03-04T00:47:15;5.87;;;3.23;;
13704;SDS011;6924;52.122;9.952;2023-03-04T00:49:41;10.60;;;3.60;;
13704;SDS011;6924;52.122;9.952;2023-03-04T00:52:08;8.43;;;2.73;;
13704;SDS011;6924;52.122;9.952;2023-03-04T00:54:34;6.43;;;3.03;;
13704;SDS011;6924;52.122;9.952;2023-03-04T00:57:01;9.40;;;2.53;;
13704;SDS011;6924;52.122;9.952;2023-03-04T00:59:27;10.80;;;2.90;;
13704;SDS011;6924;52.122;9.952;2023-03-04T01:01:55;7.17;;;2.80;;
13704;SDS011;6924;52.122;9.952;2023-03-04T01:04:21;14.97;;;3.97;;
13704;SDS011;6924;52.122;9.952;2023-03-04T01:06:48;6.97;;;3.33;;
13704;SDS011;6924;52.122;9.952;2023-03-04T01:09:14;9.07;;;2.77;;
13704;SDS011;6924;52.122;9.952;2023-03-04T01:11:41;5.93;;;2.60;;
13704;SDS011;6924;52.122;9.952;2023-03-04T01:14:07;12.63;;;3.27;;
13704;SDS011;6924;52.122;9.952;2023-03-04T01:16:34;6.00;;;2.87;;
13704;SDS011;6924;52.122;9.952;2023-03-04T01:19:02;11.47;;;3.50;;
13704;SDS011;6924;52.122;9.952;2023-03-04T01:21:28;10.97;;;2.30;;
13704;SDS011;6924;52.122;9.952;2023-03-04T01:23:55;13.60;;;3.17;;
13704;SDS011;6924;52.122;9.952;2023-03-04T01:26:21;10.43;;;3.13;;
13704;SDS011;6924;52.122;9.952;2023-03-04T01:28:47;13.70;;;3.37;;
13704;SDS011;6924;52.122;9.952;2023-03-04T01:31:14;8.93;;;2.40;;
13704;SDS011;6924;52.122;9.952;2023-03-04T01:33:40;8.33;;;2.30;;
13704;SDS011;6924;52.122;9.952;2023-03-04T01:36:08;10.20;;;2.50;;
13704;SDS011;6924;52.122;9.952;2023-03-04T01:38:34;5.27;;;3.00;;
13704;SDS011;6924;52.122;9.952;2023-03-04T01:41:01;4.87;;;2.67;;
13704;SDS011;6924;52.122;9.952;2023-03-04T01:43:28;12.87;;;3.60;;
13704;SDS011;6924;52.122;9.952;2023-03-04T01:45:56;6.53;;;2.30;;
13704;SDS011;6924;52.122;9.952;2023-03-04T01:48:24;6.27;;;2.40;;
13704;SDS011;6924;52.122;9.952;2023-03-04T01:50:52;12.73;;;2.97;;
13704;SDS011;6924;52.122;9.952;2023-03-04T01:53:21;11.87;;;3.83;;
13704;SDS011;6924;52.122;9.952;2023-03-04T01:55:49;15.13;;;3.00;;
13704;SDS011;6924;52.122;9.952;2023-03-04T01:58:17;11.97;;;2.97;;
13704;SDS011;6924;52.122;9.952;2023-03-04T02:00:44;11.40;;;3.83;;
13704;SDS011;6924;52.122;9.952;2023-03-04T02:03:12;12.93;;;3.27;;
13704;SDS011;6924;52.122;9.952;2023-03-04T02:05:40;7.77;;;2.90;;
13704;SDS011;6924;52.122;9.952;2023-03-04T02:08:09;12.93;;;2.83;;
13704;SDS011;6924;52.122;9.952;2023-03-04T02:10:38;12.50;;;2.60;;
13704;SDS011;6924;52.122;9.952;2023-03-04T02:13:06;12.00;;;2.60;;
13704;SDS011;6924;52.122;9.952;2023-03-04T02:15:33;5.33;;;1.97;;
13704;SDS011;6924;52.122;9.952;2023-03-04T02:18:10;3.90;;;2.17;;
13704;SDS011;6924;52.122;9.952;2023-03-04T02:20:42;13.20;;;2.20;;
13704;SDS011;6924;52.122;9.952;2023-03-04T02:23:18;6.10;;;1.70;;
13704;SDS011;6924;52.122;9.952;2023-03-04T02:25:51;7.00;;;2.33;;
13704;SDS011;6924;52.122;9.952;2023-03-04T02:28:32;6.83;;;1.97;;
13704;SDS011;6924;52.122;9.952;2023-03-04T02:30:58;7.63;;;1.80;;
13704;SDS011;6924;52.122;9.952;2023-03-04T02:33:25;5.90;;;1.33;;
13704;SDS011;6924;52.122;9.952;2023-03-04T02:35:52;10.03;;;1.90;;
13704;SDS011;6924;52.122;9.952;2023-03-04T02:38:18;6.67;;;1.70;;
13704;SDS011;6924;52.122;9.952;2023-03-04T02:40:46;9.40;;;1.37;;
13704;SDS011;6924;52.122;9.952;2023-03-04T02:43:18;3.97;;;1.23;;
13704;SDS011;6924;52.122;9.952;2023-03-04T02:45:45;9.00;;;1.53;;
13704;SDS011;6924;52.122;9.952;2023-03-04T02:48:16;6.53;;;1.83;;
13704;SDS011;6924;52.122;9.952;2023-03-04T02:50:44;2.03;;;1.30;;
13704;SDS011;6924;52.122;9.952;2023-03-04T02:53:13;4.37;;;1.37;;
13704;SDS011;6924;52.122;9.952;2023-03-04T02:55:40;8.70;;;2.83;;
13704;SDS011;6924;52.122;9.952;2023-03-04T02:58:07;7.53;;;1.53;;
13704;SDS011;6924;52.122;9.952;2023-03-04T03:00:35;7.60;;;1.97;;
13704;SDS011;6924;52.122;9.952;2023-03-04T03:03:02;11.13;;;1.70;;
13704;SDS011;6924;52.122;9.952;2023-03-04T03:05:30;5.23;;;1.40;;
13704;SDS011;6924;52.122;9.952;2023-03-04T03:07:58;7.73;;;1.30;;
13704;SDS011;6924;52.122;9.952;2023-03-04T03:10:24;6.83;;;1.40;;
13704;SDS011;6924;52.122;9.952;2023-03-04T03:12:51;7.80;;;1.10;;
13704;SDS011;6924;52.122;9.952;2023-03-04T03:15:18;9.23;;;1.47;;
13704;SDS011;6924;52.122;9.952;2023-03-04T03:17:46;5.50;;;1.30;;
13704;SDS011;6924;52.122;9.952;2023-03-04T03:20:13;6.57;;;1.17;;
13704;SDS011;6924;52.122;9.952;2023-03-04T03:22:40;5.83;;;1.10;;
13704;SDS011;6924;52.122;9.952;2023-03-04T03:25:07;8.80;;;2.10;;
13704;SDS011;6924;52.122;9.952;2023-03-04T03:27:34;6.03;;;1.13;;
13704;SDS011;6924;52.122;9.952;2023-03-04T03:30:01;5.30;;;1.33;;
13704;SDS011;6924;52.122;9.952;2023-03-04T03:32:28;4.60;;;0.90;;
13704;SDS011;6924;52.122;9.952;2023-03-04T03:34:56;5.90;;;1.10;;
13704;SDS011;6924;52.122;9.952;2023-03-04T03:37:22;3.07;;;0.77;;
13704;SDS011;6924;52.122;9.952;2023-03-04T03:39:49;7.07;;;1.20;;
13704;SDS011;6924;52.122;9.952;2023-03-04T03:42:15;9.20;;;1.10;;
13704;SDS011;6924;52.122;9.952;2023-03-04T03:44:42;5.00;;;0.87;;
13704;SDS011;6924;52.122;9.952;2023-03-04T03:47:08;2.30;;;1.20;;
13704;SDS011;6924;52.122;9.952;2023-03-04T03:49:34;4.07;;;1.10;;
13704;SDS011;6924;52.122;9.952;2023-03-04T03:52:02;6.40;;;1.23;;
13704;SDS011;6924;52.122;9.952;2023-03-04T03:54:29;4.47;;;1.30;;
13704;SDS011;6924;52.122;9.952;2023-03-04T03:56:55;3.73;;;1.13;;
13704;SDS011;6924;52.122;9.952;2023-03-04T03:59:22;3.70;;;1.23;;
13704;SDS011;6924;52.122;9.952;2023-03-04T04:01:49;2.20;;;0.87;;
13704;SDS011;6924;52.122;9.952;2023-03-04T04:04:15;6.57;;;1.00;;
13704;SDS011;6924;52.122;9.952;2023-03-04T04:06:41;4.80;;;1.13;;
13704;SDS011;6924;52.122;9.952;2023-03-04T04:09:09;4.03;;;1.33;;
13704;SDS011;6924;52.122;9.952;2023-03-04T04:11:36;3.17;;;1.43;;
13704;SDS011;6924;52.122;9.952;2023-03-04T04:14:02;5.17;;;1.20;;
13704;SDS011;6924;52.122;9.952;2023-03-04T04:16:29;4.33;;;0.97;;
13704;SDS011;6924;52.122;9.952;2023-03-04T04:18:55;6.87;;;1.13;;
13704;SDS011;6924;52.122;9.952;2023-03-04T04:21:21;5.40;;;1.10;;
13704;SDS011;6924;52.122;9.952;2023-03-04T04:23:48;4.43;;;1.10;;
13704;SDS011;6924;52.122;9.952;2023-03-04T04:26:15;7.77;;;1.30;;
13704;SDS011;6924;52.122;9.952;2023-03-04T04:28:42;4.00;;;1.33;;
13704;SDS011;6924;52.122;9.952;2023-03-04T04:31:08;2.97;;;1.00;;
13704;SDS011;6924;52.122;9.952;2023-03-04T04:33:35;3.47;;;1.00;;
13704;SDS011;6924;52.122;9.952;2023-03-04T04:36:02;5.87;;;0.80;;
13704;SDS011;6924;52.122;9.952;2023-03-04T04:38:29;8.40;;;1.20;;
13704;SDS011;6924;52.122;9.952;2023-03-04T04:40:56;5.63;;;1.23;;
13704;SDS011;6924;52.122;9.952;2023-03-04T04:43:24;3.63;;;1.37;;
13704;SDS011;6924;52.122;9.952;2023-03-04T04:45:51;5.33;;;1.10;;
13704;SDS011;6924;52.122;9.952;2023-03-04T04:48:17;11.23;;;1.37;;
13704;SDS011;6924;52.122;9.952;2023-03-04T04:50:44;9.17;;;1.40;;
13704;SDS011;6924;52.122;9.952;2023-03-04T04:53:10;4.27;;;1.00;;
13704;SDS011;6924;52.122;9.952;2023-03-04T04:55:37;4.47;;;1.23;;
13704;SDS011;6924;52.122;9.952;2023-03-04T04:58:04;1.93;;;0.97;;
13704;SDS011;6924;52.122;9.952;2023-03-04T05:00:32;7.33;;;1.13;;
13704;SDS011;6924;52.122;9.952;2023-03-04T05:02:58;9.73;;;1.40;;
13704;SDS011;6924;52.122;9.952;2023-03-04T05:05:25;10.40;;;1.47;;
13704;SDS011;6924;52.122;9.952;2023-03-04T05:07:51;4.40;;;1.00;;
13704;SDS011;6924;52.122;9.952;2023-03-04T05:10:18;6.20;;;1.47;;
13704;SDS011;6924;52.122;9.952;2023-03-04T05:12:44;3.43;;;1.27;;
13704;SDS011;6924;52.122;9.952;2023-03-04T05:15:11;5.60;;;1.37;;
13704;SDS011;6924;52.122;9.952;2023-03-04T05:17:38;2.30;;;0.97;;
13704;SDS011;6924;52.122;9.952;2023-03-04T05:20:05;3.03;;;1.17;;
13704;SDS011;6924;52.122;9.952;2023-03-04T05:22:32;14.23;;;1.80;;
13704;SDS011;6924;52.122;9.952;2023-03-04T05:24:59;4.37;;;1.57;;
13704;SDS011;6924;52.122;9.952;2023-03-04T05:27:25;3.10;;;1.20;;
13704;SDS011;6924;52.122;9.952;2023-03-04T05:29:52;1.90;;;1.00;;
13704;SDS011;6924;52.122;9.952;2023-03-04T05:32:19;4.70;;;1.70;;
13704;SDS011;6924;52.122;9.952;2023-03-04T05:34:47;1.13;;;0.80;;
13704;SDS011;6924;52.122;9.952;2023-03-04T05:37:13;2.43;;;0.97;;
13704;SDS011;6924;52.122;9.952;2023-03-04T05:39:40;5.33;;;1.23;;
13704;SDS011;6924;52.122;9.952;2023-03-04T05:42:06;9.73;;;1.30;;
13704;SDS011;6924;52.122;9.952;2023-03-04T05:44:33;3.20;;;1.33;;
13704;SDS011;6924;52.122;9.952;2023-03-04T05:46:59;3.93;;;1.10;;
13704;SDS011;6924;52.122;9.952;2023-03-04T05:49:25;4.10;;;0.80;;
13704;SDS011;6924;52.122;9.952;2023-03-04T05:51:53;3.73;;;1.30;;
13704;SDS011;6924;52.122;9.952;2023-03-04T05:54:19;5.03;;;1.07;;
13704;SDS011;6924;52.122;9.952;2023-03-04T05:56:46;2.87;;;1.13;;
13704;SDS011;6924;52.122;9.952;2023-03-04T05:59:12;3.97;;;1.53;;
13704;SDS011;6924;52.122;9.952;2023-03-04T06:01:44;4.70;;;1.43;;
13704;SDS011;6924;52.122;9.952;2023-03-04T06:04:10;3.53;;;1.30;;
13704;SDS011;6924;52.122;9.952;2023-03-04T06:06:37;2.23;;;1.07;;
13704;SDS011;6924;52.122;9.952;2023-03-04T06:09:05;8.40;;;2.20;;
13704;SDS011;6924;52.122;9.952;2023-03-04T06:11:31;3.83;;;1.00;;
13704;SDS011;6924;52.122;9.952;2023-03-04T06:13:57;4.63;;;0.90;;
13704;SDS011;6924;52.122;9.952;2023-03-04T06:16:24;3.57;;;0.83;;
13704;SDS011;6924;52.122;9.952;2023-03-04T06:18:50;1.53;;;0.77;;
13704;SDS011;6924;52.122;9.952;2023-03-04T06:21:17;4.53;;;0.93;;
13704;SDS011;6924;52.122;9.952;2023-03-04T06:23:43;1.60;;;0.97;;
13704;SDS011;6924;52.122;9.952;2023-03-04T06:26:12;2.20;;;1.00;;
13704;SDS011;6924;52.122;9.952;2023-03-04T06:28:39;2.80;;;1.07;;
13704;SDS011;6924;52.122;9.952;2023-03-04T06:31:06;2.10;;;0.90;;
13704;SDS011;6924;52.122;9.952;2023-03-04T06:33:32;1.60;;;1.00;;
13704;SDS011;6924;52.122;9.952;2023-03-04T06:35:59;5.60;;;1.10;;
13704;SDS011;6924;52.122;9.952;2023-03-04T06:38:25;2.87;;;1.10;;
13704;SDS011;6924;52.122;9.952;2023-03-04T06:40:52;3.93;;;1.50;;
13704;SDS011;6924;52.122;9.952;2023-03-04T06:43:20;2.97;;;1.33;;
13704;SDS011;6924;52.122;9.952;2023-03-04T06:45:47;7.10;;;1.20;;
13704;SDS011;6924;52.122;9.952;2023-03-04T06:48:14;1.53;;;1.03;;
13704;SDS011;6924;52.122;9.952;2023-03-04T06:50:40;5.13;;;1.00;;
13704;SDS011;6924;52.122;9.952;2023-03-04T06:53:06;2.27;;;1.00;;
13704;SDS011;6924;52.122;9.952;2023-03-04T06:55:33;3.63;;;1.07;;
13704;SDS011;6924;52.122;9.952;2023-03-04T06:57:59;3.70;;;0.93;;
13704;SDS011;6924;52.122;9.952;2023-03-04T07:00:27;2.13;;;1.10;;
13704;SDS011;6924;52.122;9.952;2023-03-04T07:02:53;4.27;;;1.40;;
13704;SDS011;6924;52.122;9.952;2023-03-04T07:05:20;1.50;;;1.10;;
13704;SDS011;6924;52.122;9.952;2023-03-04T07:07:46;2.30;;;0.97;;
13704;SDS011;6924;52.122;9.952;2023-03-04T07:10:13;1.17;;;0.80;;
13704;SDS011;6924;52.122;9.952;2023-03-04T07:12:40;3.20;;;1.37;;
13704;SDS011;6924;52.122;9.952;2023-03-04T07:15:07;6.13;;;1.40;;
13704;SDS011;6924;52.122;9.952;2023-03-04T07:17:36;1.83;;;0.70;;
13704;SDS011;6924;52.122;9.952;2023-03-04T07:20:03;4.57;;;1.17;;
13704;SDS011;6924;52.122;9.952;2023-03-04T07:22:30;2.97;;;1.50;;
13704;SDS011;6924;52.122;9.952;2023-03-04T07:24:56;4.13;;;1.60;;
13704;SDS011;6924;52.122;9.952;2023-03-04T07:27:23;3.77;;;1.13;;
13704;SDS011;6924;52.122;9.952;2023-03-04T07:29:49;6.07;;;1.20;;
13704;SDS011;6924;52.122;9.952;2023-03-04T07:32:16;2.73;;;1.30;;
13704;SDS011;6924;52.122;9.952;2023-03-04T07:34:43;4.27;;;1.10;;
13704;SDS011;6924;52.122;9.952;2023-03-04T07:37:10;2.40;;;1.07;;
13704;SDS011;6924;52.122;9.952;2023-03-04T07:39:36;5.53;;;1.83;;
13704;SDS011;6924;52.122;9.952;2023-03-04T07:42:03;3.73;;;1.13;;
13704;SDS011;6924;52.122;9.952;2023-03-04T07:44:29;3.67;;;1.30;;
13704;SDS011;6924;52.122;9.952;2023-03-04T07:46:55;5.27;;;1.37;;
13704;SDS011;6924;52.122;9.952;2023-03-04T07:49:22;3.60;;;1.27;;
13704;SDS011;6924;52.122;9.952;2023-03-04T07:51:50;3.27;;;1.50;;
13704;SDS011;6924;52.122;9.952;2023-03-04T07:54:16;3.70;;;1.10;;
13704;SDS011;6924;52.122;9.952;2023-03-04T07:56:44;1.77;;;1.03;;
13704;SDS011;6924;52.122;9.952;2023-03-04T07:59:11;4.87;;;1.20;;
13704;SDS011;6924;52.122;9.952;2023-03-04T08:01:37;1.83;;;1.57;;
13704;SDS011;6924;52.122;9.952;2023-03-04T08:04:04;1.87;;;1.40;;
13704;SDS011;6924;52.122;9.952;2023-03-04T08:06:32;2.90;;;1.17;;
13704;SDS011;6924;52.122;9.952;2023-03-04T08:09:01;1.50;;;0.90;;
13704;SDS011;6924;52.122;9.952;2023-03-04T08:11:29;3.97;;;1.40;;
13704;SDS011;6924;52.122;9.952;2023-03-04T08:13:57;1.87;;;1.30;;
13704;SDS011;6924;52.122;9.952;2023-03-04T08:16:24;1.13;;;0.83;;
13704;SDS011;6924;52.122;9.952;2023-03-04T08:18:53;5.87;;;1.73;;
13704;SDS011;6924;52.122;9.952;2023-03-04T08:21:21;1.57;;;0.90;;
13704;SDS011;6924;52.122;9.952;2023-03-04T08:23:49;3.50;;;1.40;;
13704;SDS011;6924;52.122;9.952;2023-03-04T08:26:18;2.83;;;0.87;;
13704;SDS011;6924;52.122;9.952;2023-03-04T08:28:47;2.10;;;1.10;;
13704;SDS011;6924;52.122;9.952;2023-03-04T08:31:14;3.17;;;0.90;;
13704;SDS011;6924;52.122;9.952;2023-03-04T08:33:42;1.80;;;1.40;;
13704;SDS011;6924;52.122;9.952;2023-03-04T08:36:09;3.27;;;1.10;;
13704;SDS011;6924;52.122;9.952;2023-03-04T08:38:36;2.63;;;1.07;;
13704;SDS011;6924;52.122;9.952;2023-03-04T08:41:03;2.77;;;1.27;;
13704;SDS011;6924;52.122;9.952;2023-03-04T08:43:31;3.67;;;1.13;;
13704;SDS011;6924;52.122;9.952;2023-03-04T08:45:58;4.03;;;1.20;;
13704;SDS011;6924;52.122;9.952;2023-03-04T08:48:25;0.80;;;0.70;;
13704;SDS011;6924;52.122;9.952;2023-03-04T08:50:51;2.77;;;1.10;;
13704;SDS011;6924;52.122;9.952;2023-03-04T08:53:18;1.60;;;0.90;;
13704;SDS011;6924;52.122;9.952;2023-03-04T08:55:45;1.20;;;1.03;;
13704;SDS011;6924;52.122;9.952;2023-03-04T08:58:12;1.40;;;0.90;;
13704;SDS011;6924;52.122;9.952;2023-03-04T09:00:41;1.87;;;0.90;;
13704;SDS011;6924;52.122;9.952;2023-03-04T09:03:12;2.27;;;0.87;;
13704;SDS011;6924;52.122;9.952;2023-03-04T09:05:38;2.00;;;1.80;;
13704;SDS011;6924;52.122;9.952;2023-03-04T09:08:05;1.33;;;0.90;;
13704;SDS011;6924;52.122;9.952;2023-03-04T09:10:32;2.73;;;0.93;;
13704;SDS011;6924;52.122;9.952;2023-03-04T09:12:59;2.17;;;0.97;;
13704;SDS011;6924;52.122;9.952;2023-03-04T09:15:26;3.03;;;1.40;;
13704;SDS011;6924;52.122;9.952;2023-03-04T09:17:54;0.87;;;0.80;;
13704;SDS011;6924;52.122;9.952;2023-03-04T09:20:20;1.43;;;0.90;;
13704;SDS011;6924;52.122;9.952;2023-03-04T09:22:47;3.93;;;1.53;;
13704;SDS011;6924;52.122;9.952;2023-03-04T09:25:13;2.13;;;0.97;;
13704;SDS011;6924;52.122;9.952;2023-03-04T09:27:40;1.07;;;0.97;;
13704;SDS011;6924;52.122;9.952;2023-03-04T09:30:07;1.03;;;0.90;;
13704;SDS011;6924;52.122;9.952;2023-03-04T09:32:34;0.97;;;0.77;;
13704;SDS011;6924;52.122;9.952;2023-03-04T09:35:03;1.27;;;0.67;;
13704;SDS011;6924;52.122;9.952;2023-03-04T09:37:30;1.20;;;1.03;;
13704;SDS011;6924;52.122;9.952;2023-03-04T09:39:56;1.50;;;0.70;;
13704;SDS011;6924;52.122;9.952;2023-03-04T09:42:24;3.63;;;0.70;;
13704;SDS011;6924;52.122;9.952;2023-03-04T09:44:54;2.60;;;0.90;;
13704;SDS011;6924;52.122;9.952;2023-03-04T09:47:21;1.37;;;0.67;;
13704;SDS011;6924;52.122;9.952;2023-03-04T09:49:51;0.90;;;0.70;;
13704;SDS011;6924;52.122;9.952;2023-03-04T09:52:27;2.10;;;0.70;;
13704;SDS011;6924;52.122;9.952;2023-03-04T09:55:05;1.80;;;0.97;;
13704;SDS011;6924;52.122;9.952;2023-03-04T09:57:44;1.60;;;1.40;;
13704;SDS011;6924;52.122;9.952;2023-03-04T10:00:17;0.97;;;0.70;;
13704;SDS011;6924;52.122;9.952;2023-03-04T10:02:49;1.83;;;0.77;;
13704;SDS011;6924;52.122;9.952;2023-03-04T10:05:27;0.77;;;0.50;;
13704;SDS011;6924;52.122;9.952;2023-03-04T10:07:59;1.97;;;0.60;;
13704;SDS011;6924;52.122;9.952;2023-03-04T10:10:37;1.40;;;0.70;;
13704;SDS011;6924;52.122;9.952;2023-03-04T10:13:09;0.70;;;0.60;;
13704;SDS011;6924;52.122;9.952;2023-03-04T10:15:41;0.90;;;0.80;;
13704;SDS011;6924;52.122;9.952;2023-03-04T10:18:12;0.97;;;0.60;;
13704;SDS011;6924;52.122;9.952;2023-03-04T10:20:46;1.40;;;0.73;;
13704;SDS011;6924;52.122;9.952;2023-03-04T10:23:20;1.20;;;0.90;;
13704;SDS011;6924;52.122;9.952;2023-03-04T10:25:49;1.20;;;0.97;;
13704;SDS011;6924;52.122;9.952;2023-03-04T10:28:18;2.00;;;1.13;;
13704;SDS011;6924;52.122;9.952;2023-03-04T10:30:48;2.67;;;1.30;;
13704;SDS011;6924;52.122;9.952;2023-03-04T10:33:21;5.13;;;1.20;;
13704;SDS011;6924;52.122;9.952;2023-03-04T10:35:49;3.30;;;0.77;;
13704;SDS011;6924;52.122;9.952;2023-03-04T10:38:22;7.60;;;1.20;;
13704;SDS011;6924;52.122;9.952;2023-03-04T10:40:49;3.60;;;0.93;;
13704;SDS011;6924;52.122;9.952;2023-03-04T10:43:16;2.80;;;1.00;;
13704;SDS011;6924;52.122;9.952;2023-03-04T10:45:43;7.40;;;1.10;;
13704;SDS011;6924;52.122;9.952;2023-03-04T10:48:18;5.93;;;0.90;;
13704;SDS011;6924;52.122;9.952;2023-03-04T10:50:45;4.43;;;1.63;;
13704;SDS011;6924;52.122;9.952;2023-03-04T10:53:20;2.63;;;1.13;;
13704;SDS011;6924;52.122;9.952;2023-03-04T10:55:53;5.47;;;1.23;;
13704;SDS011;6924;52.122;9.952;2023-03-04T10:58:20;5.50;;;1.47;;
13704;SDS011;6924;52.122;9.952;2023-03-04T11:00:51;2.07;;;1.03;;
13704;SDS011;6924;52.122;9.952;2023-03-04T11:03:28;2.60;;;0.70;;
13704;SDS011;6924;52.122;9.952;2023-03-04T11:06:03;3.47;;;1.70;;
13704;SDS011;6924;52.122;9.952;2023-03-04T11:08:33;3.70;;;0.93;;
13704;SDS011;6924;52.122;9.952;2023-03-04T11:10:59;3.27;;;0.93;;
13704;SDS011;6924;52.122;9.952;2023-03-04T11:13:26;2.57;;;0.97;;
13704;SDS011;6924;52.122;9.952;2023-03-04T11:15:54;5.40;;;0.77;;
13704;SDS011;6924;52.122;9.952;2023-03-04T11:18:23;5.87;;;1.23;;
13704;SDS011;6924;52.122;9.952;2023-03-04T11:21:05;6.70;;;0.90;;
13704;SDS011;6924;52.122;9.952;2023-03-04T11:23:38;2.53;;;0.70;;
13704;SDS011;6924;52.122;9.952;2023-03-04T11:26:10;3.43;;;0.90;;
13704;SDS011;6924;52.122;9.952;2023-03-04T11:28:41;1.97;;;0.77;;
13704;SDS011;6924;52.122;9.952;2023-03-04T11:31:13;1.87;;;0.50;;
13704;SDS011;6924;52.122;9.952;2023-03-04T11:33:42;1.63;;;0.40;;
13704;SDS011;6924;52.122;9.952;2023-03-04T11:36:20;3.00;;;0.83;;
13704;SDS011;6924;52.122;9.952;2023-03-04T11:38:55;2.70;;;0.57;;
13704;SDS011;6924;52.122;9.952;2023-03-04T11:41:24;2.57;;;0.57;;
13704;SDS011;6924;52.122;9.952;2023-03-04T11:43:56;1.70;;;0.70;;
13704;SDS011;6924;52.122;9.952;2023-03-04T11:49:36;4.07;;;0.80;;
13704;SDS011;6924;52.122;9.952;2023-03-04T11:52:23;3.03;;;1.00;;
13704;SDS011;6924;52.122;9.952;2023-03-04T11:55:08;5.27;;;0.87;;
13704;SDS011;6924;52.122;9.952;2023-03-04T11:57:45;4.90;;;1.00;;
13704;SDS011;6924;52.122;9.952;2023-03-04T12:00:22;3.43;;;0.80;;
13704;SDS011;6924;52.122;9.952;2023-03-04T12:05:53;3.20;;;1.50;;
13704;SDS011;6924;52.122;9.952;2023-03-04T12:08:28;4.47;;;1.20;;
13704;SDS011;6924;52.122;9.952;2023-03-04T12:11:06;6.80;;;2.00;;
13704;SDS011;6924;52.122;9.952;2023-03-04T12:16:41;2.40;;;1.20;;
13704;SDS011;6924;52.122;9.952;2023-03-04T12:19:20;1.87;;;0.73;;
13704;SDS011;6924;52.122;9.952;2023-03-04T12:24:53;2.30;;;0.67;;
13704;SDS011;6924;52.122;9.952;2023-03-04T12:27:36;2.73;;;0.40;;
13704;SDS011;6924;52.122;9.952;2023-03-04T12:30:15;4.70;;;0.70;;
13704;SDS011;6924;52.122;9.952;2023-03-04T12:32:52;3.33;;;0.80;;
13704;SDS011;6924;52.122;9.952;2023-03-04T12:35:30;3.70;;;0.93;;
13704;SDS011;6924;52.122;9.952;2023-03-04T12:38:08;2.50;;;0.60;;
13704;SDS011;6924;52.122;9.952;2023-03-04T12:40:48;4.77;;;1.53;;
13704;SDS011;6924;52.122;9.952;2023-03-04T12:43:36;2.53;;;0.73;;
13704;SDS011;6924;52.122;9.952;2023-03-04T12:46:10;1.13;;;1.03;;
13704;SDS011;6924;52.122;9.952;2023-03-04T12:48:49;2.83;;;0.93;;
13704;SDS011;6924;52.122;9.952;2023-03-04T12:51:28;2.40;;;0.80;;
13704;SDS011;6924;52.122;9.952;2023-03-04T12:54:02;5.33;;;1.53;;
13704;SDS011;6924;52.122;9.952;2023-03-04T12:56:38;1.73;;;0.90;;
13704;SDS011;6924;52.122;9.952;2023-03-04T12:59:13;5.13;;;0.90;;
13704;SDS011;6924;52.122;9.952;2023-03-04T13:01:43;2.03;;;0.90;;
13704;SDS011;6924;52.122;9.952;2023-03-04T13:04:14;5.07;;;2.03;;
13704;SDS011;6924;52.122;9.952;2023-03-04T13:06:49;2.77;;;1.17;;
13704;SDS011;6924;52.122;9.952;2023-03-04T13:09:27;1.77;;;0.70;;
13704;SDS011;6924;52.122;9.952;2023-03-04T13:12:04;2.87;;;0.60;;
13704;SDS011;6924;52.122;9.952;2023-03-04T13:14:41;3.83;;;0.63;;
13704;SDS011;6924;52.122;9.952;2023-03-04T13:17:42;5.00;;;0.70;;
13704;SDS011;6924;52.122;9.952;2023-03-04T13:20:16;1.93;;;0.70;;
13704;SDS011;6924;52.122;9.952;2023-03-04T13:22:45;6.63;;;0.87;;
13704;SDS011;6924;52.122;9.952;2023-03-04T13:25:33;1.80;;;0.73;;
13704;SDS011;6924;52.122;9.952;2023-03-04T13:28:05;8.33;;;0.73;;
13704;SDS011;6924;52.122;9.952;2023-03-04T13:33:55;3.03;;;0.93;;
13704;SDS011;6924;52.122;9.952;2023-03-04T13:36:33;6.77;;;1.77;;
13704;SDS011;6924;52.122;9.952;2023-03-04T13:39:26;5.50;;;0.83;;
13704;SDS011;6924;52.122;9.952;2023-03-04T13:41:59;3.23;;;0.50;;
13704;SDS011;6924;52.122;9.952;2023-03-04T13:47:44;3.90;;;0.63;;
13704;SDS011;6924;52.122;9.952;2023-03-04T13:50:20;3.73;;;1.43;;
13704;SDS011;6924;52.122;9.952;2023-03-04T13:52:54;4.40;;;0.80;;
13704;SDS011;6924;52.122;9.952;2023-03-04T13:55:41;2.93;;;0.60;;
13704;SDS011;6924;52.122;9.952;2023-03-04T13:58:16;1.33;;;0.50;;
13704;SDS011;6924;52.122;9.952;2023-03-04T14:00:47;1.67;;;0.67;;
13704;SDS011;6924;52.122;9.952;2023-03-04T14:03:20;1.63;;;0.53;;
13704;SDS011;6924;52.122;9.952;2023-03-04T14:08:40;2.20;;;0.70;;
13704;SDS011;6924;52.122;9.952;2023-03-04T14:11:09;3.10;;;0.77;;
13704;SDS011;6924;52.122;9.952;2023-03-04T14:13:38;5.33;;;0.40;;
13704;SDS011;6924;52.122;9.952;2023-03-04T14:16:05;1.50;;;0.47;;
13704;SDS011;6924;52.122;9.952;2023-03-04T14:18:33;2.23;;;0.60;;
13704;SDS011;6924;52.122;9.952;2023-03-04T14:20:59;3.17;;;0.70;;
13704;SDS011;6924;52.122;9.952;2023-03-04T14:23:27;4.17;;;0.90;;
13704;SDS011;6924;52.122;9.952;2023-03-04T14:26:04;3.23;;;0.87;;
13704;SDS011;6924;52.122;9.952;2023-03-04T14:28:32;1.53;;;0.60;;
13704;SDS011;6924;52.122;9.952;2023-03-04T14:31:10;3.10;;;0.93;;
13704;SDS011;6924;52.122;9.952;2023-03-04T14:33:44;4.23;;;0.67;;
13704;SDS011;6924;52.122;9.952;2023-03-04T14:36:14;5.50;;;1.17;;
13704;SDS011;6924;52.122;9.952;2023-03-04T14:38:46;2.43;;;0.73;;
13704;SDS011;6924;52.122;9.952;2023-03-04T14:41:17;8.77;;;1.27;;
13704;SDS011;6924;52.122;9.952;2023-03-04T14:43:48;2.97;;;0.63;;
13704;SDS011;6924;52.122;9.952;2023-03-04T14:46:18;1.83;;;0.80;;
13704;SDS011;6924;52.122;9.952;2023-03-04T14:48:49;1.70;;;0.60;;
13704;SDS011;6924;52.122;9.952;2023-03-04T14:51:27;5.50;;;0.60;;
13704;SDS011;6924;52.122;9.952;2023-03-04T14:53:56;2.17;;;0.73;;
13704;SDS011;6924;52.122;9.952;2023-03-04T14:56:26;3.10;;;1.10;;
13704;SDS011;6924;52.122;9.952;2023-03-04T14:58:54;3.60;;;1.10;;
13704;SDS011;6924;52.122;9.952;2023-03-04T15:01:22;4.70;;;1.20;;
13704;SDS011;6924;52.122;9.952;2023-03-04T15:03:58;2.07;;;0.70;;
13704;SDS011;6924;52.122;9.952;2023-03-04T15:06:27;6.07;;;0.90;;
13704;SDS011;6924;52.122;9.952;2023-03-04T15:08:55;4.07;;;1.20;;
13704;SDS011;6924;52.122;9.952;2023-03-04T15:11:25;1.83;;;0.70;;
13704;SDS011;6924;52.122;9.952;2023-03-04T15:13:55;2.50;;;1.13;;
13704;SDS011;6924;52.122;9.952;2023-03-04T15:16:23;3.80;;;2.27;;
13704;SDS011;6924;52.122;9.952;2023-03-04T15:18:55;6.20;;;0.90;;
13704;SDS011;6924;52.122;9.952;2023-03-04T15:21:33;7.97;;;0.90;;
13704;SDS011;6924;52.122;9.952;2023-03-04T15:24:02;3.50;;;1.00;;
13704;SDS011;6924;52.122;9.952;2023-03-04T15:26:29;3.33;;;0.43;;
13704;SDS011;6924;52.122;9.952;2023-03-04T15:28:57;3.93;;;0.73;;
13704;SDS011;6924;52.122;9.952;2023-03-04T15:31:24;3.57;;;0.83;;
13704;SDS011;6924;52.122;9.952;2023-03-04T15:33:51;6.07;;;0.93;;